Time;durP1;ratioP1;P1;durP2;ratioP2;P2;SDS_P1;SDS_P2;PMS_P1;PMS_P2;Temp;Humidity;BMP_temperature;BMP_pressure;BME280_temperature;BME280_humidity;BME280_pressure;Samples;Min_cycle;Max_cycle;Signal;HPM_P1;HPM_P2
2022/03/15 00:00:30;;;;;;;82.80;72.38;;;28.50;99.90;;;;;;4145612;28;20133;-72
2022/03/15 00:02:35;;;;;;;85.80;72.72;;;28.50;99.90;;;;;;4163213;28;20049;-71
2022/03/15 00:04:40;;;;;;;87.82;71.05;;;28.50;99.90;;;;;;4147679;28;20128;-72
2022/03/15 00:06:45;;;;;;;77.47;69.00;;;28.50;99.90;;;;;;4158983;28;20096;-70
2022/03/15 00:08:50;;;;;;;84.88;66.38;;;28.50;99.90;;;;;;4148630;28;20059;-71
2022/03/15 00:10:57;;;;;;;80.43;65.82;;;28.60;99.90;;;;;;4155706;28;20057;-72
2022/03/15 00:13:02;;;;;;;77.50;65.32;;;28.60;99.90;;;;;;4136939;28;20074;-71
2022/03/15 00:15:08;;;;;;;76.57;63.60;;;28.60;99.90;;;;;;4158699;28;20073;-72
2022/03/15 00:17:15;;;;;;;80.20;63.40;;;28.60;99.90;;;;;;4145794;28;20058;-69
2022/03/15 00:19:22;;;;;;;77.90;62.92;;;28.70;99.90;;;;;;4160102;28;20045;-71
2022/03/15 00:21:28;;;;;;;76.70;63.20;;;28.60;99.90;;;;;;4159519;28;20508;-70
2022/03/15 00:23:35;;;;;;;78.55;62.22;;;28.60;99.90;;;;;;4161632;28;20128;-71
2022/03/15 00:25:40;;;;;;;80.68;63.35;;;28.70;99.90;;;;;;4160595;28;20037;-73
2022/03/15 00:27:50;;;;;;;72.97;63.63;;;28.70;99.90;;;;;;4161790;28;20038;-72
2022/03/15 00:29:57;;;;;;;79.15;62.17;;;28.70;99.90;;;;;;4160592;28;20113;-71
2022/03/15 00:32:07;;;;;;;66.53;56.35;;;28.70;99.90;;;;;;4146164;28;20046;-70
2022/03/15 00:34:12;;;;;;;78.32;56.53;;;28.70;99.90;;;;;;4162690;28;20060;-71
2022/03/15 00:36:19;;;;;;;106.43;59.95;;;28.80;99.90;;;;;;4164340;28;20052;-71
2022/03/15 00:38:25;;;;;;;77.10;55.63;;;28.90;99.90;;;;;;4162437;28;20080;-70
2022/03/15 00:40:29;;;;;;;64.85;53.60;;;28.90;99.90;;;;;;4163614;28;20053;-72
2022/03/15 00:42:34;;;;;;;66.60;53.92;;;28.90;99.90;;;;;;4183232;28;20769;-72
2022/03/15 00:44:45;;;;;;;61.30;50.25;;;28.90;99.90;;;;;;4162988;28;20128;-70
2022/03/15 00:46:52;;;;;;;60.55;51.33;;;29.00;99.80;;;;;;4146234;28;20050;-72
2022/03/15 00:49:00;;;;;;;62.92;50.63;;;29.10;99.80;;;;;;4133192;28;20046;-69
2022/03/15 00:51:07;;;;;;;59.42;49.35;;;29.10;99.60;;;;;;4145026;28;20057;-70
2022/03/15 00:53:12;;;;;;;57.63;49.90;;;29.10;99.50;;;;;;4130674;28;20061;-69
2022/03/15 00:55:18;;;;;;;56.88;48.63;;;29.10;99.40;;;;;;4144903;28;20084;-71
2022/03/15 00:57:26;;;;;;;60.55;49.13;;;29.20;99.30;;;;;;4129064;28;20157;-71
2022/03/15 00:59:31;;;;;;;55.22;47.42;;;29.20;99.60;;;;;;4129489;28;20054;-70
2022/03/15 01:01:38;;;;;;;57.40;49.13;;;29.30;99.10;;;;;;4142455;28;20081;-69
2022/03/15 01:03:45;;;;;;;55.33;46.75;;;29.30;98.90;;;;;;4125041;28;20141;-71
2022/03/15 01:05:50;;;;;;;53.28;45.13;;;29.30;98.90;;;;;;4129429;28;20034;-75
2022/03/15 01:07:55;;;;;;;52.33;45.50;;;29.40;98.70;;;;;;4126486;28;20097;-75
2022/03/15 01:10:03;;;;;;;51.33;43.55;;;29.40;98.50;;;;;;4109744;28;20180;-75
2022/03/15 01:12:09;;;;;;;62.70;46.75;;;29.50;98.40;;;;;;4112581;28;20051;-74
2022/03/15 01:14:18;;;;;;;61.42;49.63;;;29.50;98.40;;;;;;4131822;28;20050;-75
2022/03/15 01:16:24;;;;;;;69.97;55.33;;;29.60;98.80;;;;;;4114748;28;20046;-74
2022/03/15 01:18:30;;;;;;;70.63;56.15;;;29.60;99.00;;;;;;4137495;28;20057;-72
2022/03/15 01:20:42;;;;;;;70.65;52.75;;;29.60;99.10;;;;;;4165381;28;20099;-74
2022/03/15 01:22:49;;;;;;;64.18;52.05;;;29.60;99.00;;;;;;4190312;28;20673;-75
2022/03/15 01:24:53;;;;;;;64.20;51.78;;;29.60;99.10;;;;;;4166796;28;20041;-74
2022/03/15 01:27:01;;;;;;;60.85;50.00;;;29.60;99.00;;;;;;4172147;28;20045;-75
2022/03/15 01:29:11;;;;;;;63.03;53.70;;;29.60;99.10;;;;;;4153687;28;20651;-68
2022/03/15 01:31:17;;;;;;;77.72;56.72;;;29.70;99.20;;;;;;4187561;28;20814;-65
2022/03/15 01:33:23;;;;;;;68.97;55.28;;;29.70;99.30;;;;;;4150902;28;20077;-67
2022/03/15 01:35:34;;;;;;;60.55;52.58;;;29.70;99.30;;;;;;4174889;28;20041;-67
2022/03/15 01:37:40;;;;;;;58.03;47.92;;;29.80;99.10;;;;;;4164687;28;20151;-67
2022/03/15 01:39:48;;;;;;;59.00;48.30;;;29.90;98.90;;;;;;4166077;28;20057;-69
2022/03/15 01:41:59;;;;;;;;;;;29.90;98.80;;;;;;4166225;28;20045;-69
2022/03/15 01:44:18;;;;;;;55.47;47.33;;;29.90;98.70;;;;;;4164163;28;20214;-69
2022/03/15 01:46:25;;;;;;;58.60;46.30;;;29.90;98.70;;;;;;4160762;28;20042;-67
2022/03/15 01:48:34;;;;;;;54.22;45.50;;;30.00;98.60;;;;;;4164415;28;20045;-67
2022/03/15 01:50:39;;;;;;;51.33;43.17;;;30.00;98.50;;;;;;4163876;28;20048;-68
2022/03/15 01:52:47;;;;;;;53.47;44.42;;;30.20;98.40;;;;;;4167072;28;20053;-69
2022/03/15 01:54:54;;;;;;;52.85;44.00;;;30.20;98.30;;;;;;4165900;28;20049;-66
2022/03/15 01:57:03;;;;;;;54.05;44.97;;;30.20;98.30;;;;;;4172784;28;20116;-67
2022/03/15 01:59:11;;;;;;;51.13;43.58;;;30.20;98.20;;;;;;4166598;28;20045;-68
2022/03/15 02:01:18;;;;;;;51.97;44.88;;;30.30;98.20;;;;;;4151732;28;20100;-67
2022/03/15 02:03:24;;;;;;;53.40;45.67;;;30.30;98.20;;;;;;4187067;28;20049;-67
2022/03/15 02:05:32;;;;;;;58.00;46.47;;;30.40;98.10;;;;;;4189279;28;20139;-67
2022/03/15 02:07:42;;;;;;;52.50;44.75;;;30.40;98.10;;;;;;4167178;28;20041;-68
2022/03/15 02:09:49;;;;;;;50.40;45.00;;;30.50;98.00;;;;;;4160167;28;20104;-68
2022/03/15 02:11:56;;;;;;;52.10;44.15;;;30.50;97.90;;;;;;4164174;28;20041;-67
2022/03/15 02:14:04;;;;;;;50.83;43.92;;;30.50;97.80;;;;;;4192880;28;20045;-68
2022/03/15 02:16:13;;;;;;;58.53;48.13;;;30.50;97.60;;;;;;4164510;28;20045;-69
2022/03/15 02:18:26;;;;;;;53.85;46.30;;;30.60;97.40;;;;;;4163828;28;20111;-68
2022/03/15 02:20:32;;;;;;;51.95;43.63;;;30.50;97.20;;;;;;4168541;28;20072;-68
2022/03/15 02:22:37;;;;;;;52.10;45.03;;;30.60;97.40;;;;;;4165713;28;20091;-69
2022/03/15 02:24:46;;;;;;;50.20;42.75;;;30.60;97.30;;;;;;4166695;28;20045;-67
2022/03/15 02:26:56;;;;;;;53.47;45.70;;;30.70;97.20;;;;;;4165519;28;20045;-68
2022/03/15 02:29:01;;;;;;;54.15;44.75;;;30.70;97.20;;;;;;4148344;28;20048;-68
2022/03/15 02:31:09;;;;;;;54.80;45.58;;;30.70;97.10;;;;;;4166021;28;20045;-69
2022/03/15 02:33:18;;;;;;;51.47;43.47;;;30.80;96.90;;;;;;4161620;28;20047;-69
2022/03/15 02:35:24;;;;;;;55.17;43.75;;;30.90;96.90;;;;;;4162399;28;20049;-67
2022/03/15 02:37:32;;;;;;;49.85;44.35;;;30.90;96.90;;;;;;4162359;28;20131;-69
2022/03/15 02:39:40;;;;;;;51.15;43.13;;;30.90;97.00;;;;;;4164979;28;20036;-68
2022/03/15 02:41:46;;;;;;;49.42;43.85;;;31.00;97.00;;;;;;4165204;28;20049;-69
2022/03/15 02:43:56;;;;;;;50.90;45.58;;;31.00;96.70;;;;;;4162003;28;20524;-69
2022/03/15 02:46:04;;;;;;;53.40;46.47;;;31.00;96.60;;;;;;4165793;28;20044;-67
2022/03/15 02:48:12;;;;;;;51.17;44.85;;;31.10;96.50;;;;;;4161144;28;20052;-68
2022/03/15 02:50:19;;;;;;;52.70;43.97;;;31.20;96.50;;;;;;4162312;28;20037;-68
2022/03/15 02:52:29;;;;;;;54.35;44.63;;;31.20;96.50;;;;;;4162953;28;20050;-67
2022/03/15 02:54:37;;;;;;;49.42;43.95;;;31.20;96.50;;;;;;4163373;28;20061;-67
2022/03/15 02:56:48;;;;;;;53.00;43.28;;;31.30;96.50;;;;;;4175669;28;20522;-69
2022/03/15 02:58:56;;;;;;;54.58;44.72;;;31.40;96.30;;;;;;4125570;28;20130;-67
2022/03/15 03:01:01;;;;;;;50.95;44.80;;;31.40;96.20;;;;;;4140890;28;20053;-67
2022/03/15 03:03:09;;;;;;;50.05;44.75;;;31.40;96.00;;;;;;4162067;28;20174;-68
2022/03/15 03:05:17;;;;;;;50.58;43.88;;;31.40;95.60;;;;;;4165611;28;20218;-68
2022/03/15 03:07:23;;;;;;;55.55;44.30;;;31.40;95.70;;;;;;4164083;28;20076;-69
2022/03/15 03:09:29;;;;;;;51.08;43.13;;;31.40;95.80;;;;;;4161851;28;20060;-67
2022/03/15 03:11:34;;;;;;;47.85;41.88;;;31.40;95.80;;;;;;4160756;28;20120;-67
2022/03/15 03:13:42;;;;;;;51.10;43.90;;;31.50;95.80;;;;;;4163116;28;20041;-68
2022/03/15 03:15:49;;;;;;;50.92;44.13;;;31.60;95.70;;;;;;4165113;28;20107;-68
2022/03/15 03:17:55;;;;;;;51.88;45.95;;;31.50;95.40;;;;;;4164207;28;20061;-69
2022/03/15 03:20:01;;;;;;;49.63;44.13;;;31.60;95.50;;;;;;4150362;28;20050;-69
2022/03/15 03:22:12;;;;;;;51.05;42.00;;;31.60;95.40;;;;;;4155320;28;20065;-68
2022/03/15 03:24:24;;;;;;;50.55;43.28;;;31.70;95.40;;;;;;4158170;28;20152;-66
2022/03/15 03:26:32;;;;;;;48.80;41.23;;;31.70;95.30;;;;;;4160261;28;20057;-66
2022/03/15 03:28:42;;;;;;;49.88;40.72;;;31.80;95.50;;;;;;4158735;28;20049;-67
2022/03/15 03:30:48;;;;;;;48.03;42.60;;;31.80;95.60;;;;;;4156803;28;20060;-67
2022/03/15 03:32:53;;;;;;;49.28;43.15;;;31.90;95.30;;;;;;4160241;28;20050;-68
2022/03/15 03:35:04;;;;;;;50.47;42.97;;;31.90;95.10;;;;;;4159859;28;20053;-67
2022/03/15 03:37:10;;;;;;;52.25;42.55;;;32.00;95.10;;;;;;4159547;28;20072;-67
2022/03/15 03:39:17;;;;;;;50.92;42.40;;;32.00;95.00;;;;;;4157717;28;20045;-67
2022/03/15 03:41:27;;;;;;;49.33;42.33;;;32.10;95.00;;;;;;4157328;28;20045;-67
2022/03/15 03:43:34;;;;;;;45.55;40.65;;;32.10;95.00;;;;;;4159912;28;20144;-68
2022/03/15 03:45:41;;;;;;;45.53;40.70;;;32.10;95.10;;;;;;4160146;28;20164;-67
2022/03/15 03:47:52;;;;;;;46.55;39.72;;;32.20;95.20;;;;;;4156745;28;20052;-66
2022/03/15 03:49:58;;;;;;;45.38;40.42;;;32.30;95.20;;;;;;4157695;28;20494;-67
2022/03/15 03:52:12;;;;;;;46.35;41.33;;;32.30;94.90;;;;;;4157762;28;20062;-67
2022/03/15 03:54:18;;;;;;;46.58;41.45;;;32.40;94.60;;;;;;4157943;28;20610;-67
2022/03/15 03:56:23;;;;;;;48.65;43.45;;;32.40;94.50;;;;;;4157568;28;20091;-68
2022/03/15 03:58:30;;;;;;;47.88;41.80;;;32.50;94.30;;;;;;4181592;28;20392;-67
2022/03/15 04:00:35;;;;;;;47.78;42.08;;;32.50;94.20;;;;;;4156460;28;20053;-68
2022/03/15 04:02:40;;;;;;;52.70;43.85;;;32.50;94.00;;;;;;4160263;28;20111;-68
2022/03/15 04:04:47;;;;;;;54.42;43.33;;;32.60;93.40;;;;;;4159371;28;20052;-68
2022/03/15 04:06:51;;;;;;;51.95;44.75;;;32.60;93.10;;;;;;4160093;28;20056;-68
2022/03/15 04:08:56;;;;;;;47.75;42.50;;;32.50;93.00;;;;;;4182746;28;20036;-67
2022/03/15 04:11:03;;;;;;;48.00;41.92;;;32.60;93.20;;;;;;4149191;28;20087;-67
2022/03/15 04:13:08;;;;;;;46.42;40.63;;;32.60;93.50;;;;;;4151008;28;20060;-67
2022/03/15 04:15:14;;;;;;;44.95;40.20;;;32.70;93.30;;;;;;4155261;28;20144;-67
2022/03/15 04:17:18;;;;;;;48.53;41.08;;;32.80;93.30;;;;;;4156577;28;20045;-67
2022/03/15 04:19:25;;;;;;;50.63;42.88;;;32.80;93.10;;;;;;4157827;28;20050;-67
2022/03/15 04:21:30;;;;;;;47.50;42.40;;;32.80;93.00;;;;;;4157276;28;20045;-67
2022/03/15 04:23:37;;;;;;;47.72;42.03;;;32.90;93.00;;;;;;4158676;28;20045;-67
2022/03/15 04:25:44;;;;;;;49.92;42.95;;;32.90;92.60;;;;;;4158085;28;20069;-68
2022/03/15 04:27:52;;;;;;;55.88;44.55;;;32.90;92.70;;;;;;4154306;28;20104;-68
2022/03/15 04:29:59;;;;;;;49.70;42.10;;;32.90;92.70;;;;;;4157015;28;20042;-67
2022/03/15 04:32:07;;;;;;;55.38;41.40;;;32.90;92.80;;;;;;4157410;28;20049;-67
2022/03/15 04:34:12;;;;;;;53.78;42.60;;;32.90;92.80;;;;;;4158514;28;20820;-67
2022/03/15 04:36:18;;;;;;;51.58;41.60;;;33.00;92.90;;;;;;4159601;28;20080;-67
2022/03/15 04:38:25;;;;;;;49.03;42.70;;;33.00;92.60;;;;;;4141421;28;20697;-67
2022/03/15 04:40:29;;;;;;;47.70;40.47;;;33.00;92.10;;;;;;4155379;28;20107;-68
2022/03/15 04:42:37;;;;;;;51.42;42.00;;;33.00;92.30;;;;;;4158228;28;20057;-67
2022/03/15 04:44:44;;;;;;;53.53;40.40;;;33.00;92.50;;;;;;4156722;28;20033;-67
2022/03/15 04:46:48;;;;;;;45.03;40.10;;;33.10;92.50;;;;;;4159334;28;20550;-67
2022/03/15 04:48:57;;;;;;;45.55;40.70;;;33.10;92.50;;;;;;4179619;28;20049;-68
2022/03/15 04:51:06;;;;;;;48.00;39.05;;;33.10;92.50;;;;;;4154786;28;20041;-67
2022/03/15 04:53:11;;;;;;;47.72;41.03;;;33.20;92.40;;;;;;4157277;28;20068;-67
2022/03/15 04:55:19;;;;;;;47.67;39.40;;;33.30;92.20;;;;;;4158042;28;20674;-67
2022/03/15 04:57:27;;;;;;;49.45;39.55;;;33.30;92.30;;;;;;4156956;28;20051;-67
2022/03/15 04:59:32;;;;;;;49.25;40.00;;;33.30;92.40;;;;;;4182352;28;20064;-67
2022/03/15 05:01:38;;;;;;;56.42;43.13;;;33.40;92.50;;;;;;4155353;28;20507;-67
2022/03/15 05:03:45;;;;;;;60.78;44.70;;;33.50;91.80;;;;;;4154884;28;20052;-67
2022/03/15 05:05:50;;;;;;;48.33;41.50;;;33.50;92.10;;;;;;4156027;28;20111;-67
2022/03/15 05:07:57;;;;;;;45.20;38.83;;;33.50;91.60;;;;;;4158099;28;20048;-67
2022/03/15 05:12:22;;;;;;;49.13;40.85;;;33.60;92.00;;;;;;4158461;28;20866;-67
2022/03/15 05:14:29;;;;;;;49.15;39.50;;;33.60;91.90;;;;;;4140800;28;20058;-67
2022/03/15 05:16:34;;;;;;;47.72;40.15;;;33.70;91.90;;;;;;4158003;28;20411;-67
2022/03/15 05:18:40;;;;;;;49.58;40.78;;;33.70;91.90;;;;;;4159602;28;20041;-66
2022/03/15 05:20:46;;;;;;;49.20;40.13;;;33.70;92.00;;;;;;4158457;28;20068;-67
2022/03/15 05:22:53;;;;;;;52.00;40.78;;;33.80;91.90;;;;;;4155878;28;20065;-67
2022/03/15 05:24:58;;;;;;;48.45;39.65;;;33.80;91.40;;;;;;4158389;28;20045;-67
2022/03/15 05:27:04;;;;;;;54.70;38.58;;;33.80;91.50;;;;;;4159309;28;20463;-67
2022/03/15 05:29:12;;;;;;;46.33;38.38;;;33.90;91.50;;;;;;4158530;28;20041;-66
2022/03/15 05:31:22;;;;;;;44.00;38.38;;;33.90;91.50;;;;;;4157811;28;20124;-68
2022/03/15 05:33:33;;;;;;;44.30;37.25;;;33.90;91.30;;;;;;4156476;28;20068;-68
2022/03/15 05:35:40;;;;;;;41.17;36.83;;;33.90;90.90;;;;;;4157294;28;20045;-67
2022/03/15 05:37:45;;;;;;;46.88;36.60;;;33.90;90.70;;;;;;4158508;28;20550;-67
2022/03/15 05:39:51;;;;;;;41.58;35.42;;;33.90;91.00;;;;;;4157717;28;20049;-66
2022/03/15 05:41:58;;;;;;;41.65;37.13;;;33.90;91.20;;;;;;4154591;28;20041;-68
2022/03/15 05:44:05;;;;;;;43.88;36.40;;;34.00;91.40;;;;;;4157589;28;20045;-67
2022/03/15 05:46:12;;;;;;;46.42;40.83;;;34.00;91.40;;;;;;4158615;28;20079;-68
2022/03/15 05:48:20;;;;;;;45.35;39.70;;;34.10;90.80;;;;;;4156324;28;20060;-68
2022/03/15 05:50:24;;;;;;;50.47;40.30;;;34.10;90.70;;;;;;4158968;28;20073;-67
2022/03/15 05:52:34;;;;;;;43.08;38.55;;;34.10;90.70;;;;;;4156372;28;20053;-67
2022/03/15 05:54:43;;;;;;;44.65;39.00;;;34.10;90.60;;;;;;4157227;28;20045;-67
2022/03/15 05:56:49;;;;;;;43.70;39.20;;;34.10;90.20;;;;;;4157474;28;20052;-68
2022/03/15 05:58:55;;;;;;;49.13;39.92;;;34.10;90.10;;;;;;4157802;28;20065;-67
2022/03/15 06:01:00;;;;;;;39.28;35.10;;;34.10;90.40;;;;;;4156978;28;20543;-67
2022/03/15 06:03:07;;;;;;;42.20;36.50;;;34.20;90.40;;;;;;4159668;28;20053;-67
2022/03/15 06:05:14;;;;;;;44.22;38.13;;;34.20;90.30;;;;;;4160820;28;20041;-67
2022/03/15 06:07:21;;;;;;;43.80;38.38;;;34.20;90.20;;;;;;4163747;28;20046;-68
2022/03/15 06:09:29;;;;;;;42.15;36.70;;;34.30;90.20;;;;;;4159969;28;20756;-68
2022/03/15 06:11:35;;;;;;;41.05;36.67;;;34.30;90.20;;;;;;4151519;28;20037;-68
2022/03/15 06:13:40;;;;;;;41.53;35.45;;;34.30;90.10;;;;;;4160029;28;20119;-68
2022/03/15 06:15:46;;;;;;;39.55;35.08;;;34.30;90.00;;;;;;4187388;28;20044;-67
2022/03/15 06:17:56;;;;;;;40.22;34.20;;;34.30;89.80;;;;;;4160282;28;20449;-68
2022/03/15 06:20:04;;;;;;;39.75;34.90;;;34.30;90.00;;;;;;4159559;28;20369;-69
2022/03/15 06:22:13;;;;;;;38.00;33.78;;;34.30;90.00;;;;;;4158922;28;20053;-67
2022/03/15 06:24:22;;;;;;;38.85;33.83;;;34.40;90.10;;;;;;4161939;28;20053;-70
2022/03/15 06:26:28;;;;;;;36.72;32.75;;;34.40;89.60;;;;;;4183865;28;20049;-69
2022/03/15 06:28:34;;;;;;;39.70;32.30;;;34.40;89.20;;;;;;4161226;28;20048;-70
2022/03/15 06:30:41;;;;;;;36.60;32.13;;;34.40;89.20;;;;;;4158152;28;20065;-69
2022/03/15 06:32:48;;;;;;;39.95;33.08;;;34.40;89.00;;;;;;4159020;28;20073;-69
2022/03/15 06:34:53;;;;;;;36.55;32.72;;;34.40;88.60;;;;;;4161141;28;20054;-69
2022/03/15 06:37:01;;;;;;;37.60;31.92;;;34.40;88.30;;;;;;4159429;28;20488;-69
2022/03/15 06:39:08;;;;;;;35.63;31.75;;;34.50;88.50;;;;;;4160141;28;20167;-69
2022/03/15 06:41:14;;;;;;;35.95;32.17;;;34.50;88.20;;;;;;4169928;28;20077;-70
2022/03/15 06:43:19;;;;;;;39.70;34.38;;;34.50;87.60;;;;;;4159889;28;20393;-69
2022/03/15 06:45:26;;;;;;;38.67;34.08;;;34.50;87.10;;;;;;4160649;28;20171;-69
2022/03/15 06:47:31;;;;;;;38.20;33.22;;;34.60;87.10;;;;;;4160841;28;20503;-70
2022/03/15 06:49:38;;;;;;;37.05;32.05;;;34.50;87.50;;;;;;4159903;28;20479;-69
2022/03/15 06:51:43;;;;;;;38.90;33.20;;;34.60;87.90;;;;;;4178232;28;20039;-69
2022/03/15 06:53:53;;;;;;;42.75;34.90;;;34.60;87.50;;;;;;4158770;28;20392;-68
2022/03/15 06:56:00;;;;;;;43.50;33.80;;;34.60;87.30;;;;;;4124070;28;20046;-68
2022/03/15 06:58:06;;;;;;;38.13;33.13;;;34.60;87.20;;;;;;4160790;28;20051;-71
2022/03/15 07:00:13;;;;;;;34.85;31.10;;;34.70;87.80;;;;;;4159993;28;20052;-69
2022/03/15 07:02:20;;;;;;;33.22;29.73;;;34.80;86.60;;;;;;4158607;28;20072;-69
2022/03/15 07:04:28;;;;;;;37.05;31.27;;;34.80;87.40;;;;;;4159251;28;20053;-69
2022/03/15 07:06:32;;;;;;;35.55;30.48;;;34.70;86.70;;;;;;4116076;28;20046;-70
2022/03/15 07:08:39;;;;;;;33.75;30.13;;;34.80;86.90;;;;;;4141079;28;20053;-68
2022/03/15 07:10:46;;;;;;;34.10;30.50;;;34.80;86.90;;;;;;4157268;28;20045;-69
2022/03/15 07:12:51;;;;;;;39.13;30.65;;;34.80;87.10;;;;;;4157818;28;20056;-69
2022/03/15 07:15:00;;;;;;;35.00;31.27;;;34.80;87.20;;;;;;4156876;28;20415;-70
2022/03/15 07:17:07;;;;;;;39.67;31.80;;;34.80;87.00;;;;;;4158077;28;20046;-68
2022/03/15 07:19:12;;;;;;;37.17;30.38;;;34.80;86.40;;;;;;4159244;28;20042;-69
2022/03/15 07:21:18;;;;;;;33.92;29.80;;;34.80;86.60;;;;;;4158073;28;20084;-69
2022/03/15 07:23:27;;;;;;;34.63;29.38;;;34.80;86.60;;;;;;4133107;28;20399;-69
2022/03/15 07:25:31;;;;;;;37.78;29.67;;;34.80;86.40;;;;;;4159441;28;20045;-69
2022/03/15 07:27:38;;;;;;;32.17;28.65;;;34.80;86.70;;;;;;4159287;28;20037;-69
2022/03/15 07:29:43;;;;;;;33.80;29.42;;;34.80;87.90;;;;;;4160235;28;20046;-69
2022/03/15 07:31:47;;;;;;;31.85;28.55;;;34.90;87.40;;;;;;4159583;28;20153;-69
2022/03/15 07:33:54;;;;;;;32.20;27.40;;;35.00;87.10;;;;;;4157724;28;20117;-69
2022/03/15 07:36:00;;;;;;;32.85;28.77;;;35.00;86.90;;;;;;4183586;28;20079;-72
2022/03/15 07:38:04;;;;;;;34.78;28.00;;;35.00;86.60;;;;;;4158451;28;20952;-70
2022/03/15 07:40:12;;;;;;;41.72;33.28;;;35.00;86.30;;;;;;4158483;28;20052;-70
2022/03/15 07:42:19;;;;;;;48.15;38.78;;;35.00;86.30;;;;;;4158960;28;20061;-68
2022/03/15 07:44:24;;;;;;;53.83;45.85;;;35.00;86.60;;;;;;4158927;28;20484;-69
2022/03/15 07:46:31;;;;;;;49.92;40.70;;;35.00;86.90;;;;;;4159293;28;20046;-70
2022/03/15 07:48:38;;;;;;;41.00;36.60;;;35.00;87.00;;;;;;4159897;28;20037;-68
2022/03/15 07:50:43;;;;;;;44.30;39.53;;;35.10;86.50;;;;;;4161478;28;20543;-70
2022/03/15 07:52:51;;;;;;;43.03;35.60;;;35.10;86.40;;;;;;4155114;28;20054;-69
2022/03/15 07:55:00;;;;;;;39.35;32.53;;;35.00;86.90;;;;;;4157494;28;20512;-68
2022/03/15 07:57:07;;;;;;;32.35;28.88;;;35.10;87.00;;;;;;4157875;28;20064;-67
2022/03/15 07:59:12;;;;;;;33.33;28.00;;;35.10;87.70;;;;;;4157980;28;20104;-68
2022/03/15 08:01:16;;;;;;;30.13;26.92;;;35.20;85.60;;;;;;4158483;28;20041;-68
2022/03/15 08:03:22;;;;;;;32.08;27.83;;;35.20;85.90;;;;;;4158377;28;20049;-68
2022/03/15 08:05:30;;;;;;;32.60;28.52;;;35.20;86.40;;;;;;4156234;28;20045;-67
2022/03/15 08:07:37;;;;;;;33.95;28.33;;;35.30;86.00;;;;;;4157232;28;20049;-69
2022/03/15 08:09:42;;;;;;;35.13;28.27;;;35.20;85.90;;;;;;4154929;28;20092;-69
2022/03/15 08:11:49;;;;;;;34.38;28.92;;;35.20;86.40;;;;;;4148912;28;20042;-69
2022/03/15 08:13:58;;;;;;;29.73;26.52;;;35.20;86.20;;;;;;4157521;28;20103;-70
2022/03/15 08:16:04;;;;;;;30.30;27.08;;;35.20;86.10;;;;;;4158163;28;20053;-70
2022/03/15 08:18:11;;;;;;;29.17;26.08;;;35.20;86.00;;;;;;4157521;28;20037;-71
2022/03/15 08:20:20;;;;;;;32.03;26.75;;;35.30;85.40;;;;;;4154321;28;20045;-70
2022/03/15 08:22:26;;;;;;;34.13;27.17;;;35.20;85.30;;;;;;4159328;28;20045;-72
2022/03/15 08:24:33;;;;;;;32.75;28.23;;;35.20;85.00;;;;;;4160272;28;20763;-71
2022/03/15 08:26:40;;;;;;;32.47;25.60;;;35.20;85.70;;;;;;4161105;28;20392;-72
2022/03/15 08:28:48;;;;;;;31.05;27.75;;;35.20;84.60;;;;;;4157427;28;20049;-72
2022/03/15 08:30:55;;;;;;;34.45;30.52;;;35.20;84.40;;;;;;4160855;28;20042;-72
2022/03/15 08:33:01;;;;;;;37.75;29.90;;;35.20;84.40;;;;;;4157813;28;20053;-72
2022/03/15 08:35:07;;;;;;;33.05;28.67;;;35.20;84.70;;;;;;4160624;28;20076;-72
2022/03/15 08:37:14;;;;;;;33.30;29.65;;;35.20;85.00;;;;;;4160834;28;20046;-72
2022/03/15 08:39:23;;;;;;;34.13;29.20;;;35.20;85.30;;;;;;4158569;28;20080;-72
2022/03/15 08:41:28;;;;;;;33.28;28.92;;;35.20;85.50;;;;;;4160076;28;20049;-71
2022/03/15 08:43:35;;;;;;;33.97;28.38;;;35.20;85.00;;;;;;4160350;28;20071;-72
2022/03/15 08:45:40;;;;;;;33.90;29.42;;;35.20;84.60;;;;;;4157502;28;20050;-71
2022/03/15 08:47:46;;;;;;;36.30;29.98;;;35.20;83.70;;;;;;4161200;28;20038;-71
2022/03/15 08:49:54;;;;;;;38.13;28.60;;;35.20;82.80;;;;;;4155844;28;20132;-71
2022/03/15 08:52:01;;;;;;;35.00;27.83;;;35.20;82.90;;;;;;4160056;28;20686;-71
2022/03/15 08:54:06;;;;;;;32.25;28.05;;;35.10;82.80;;;;;;4160555;28;20076;-70
2022/03/15 08:56:15;;;;;;;33.53;27.58;;;35.10;83.50;;;;;;4160911;28;20201;-70
2022/03/15 08:58:22;;;;;;;33.15;27.95;;;35.10;84.30;;;;;;4160385;28;20053;-70
2022/03/15 09:00:26;;;;;;;31.98;28.00;;;35.10;84.60;;;;;;4157579;28;20676;-71
2022/03/15 09:02:38;;;;;;;30.75;27.45;;;35.10;84.60;;;;;;4141814;28;20050;-69
2022/03/15 09:04:48;;;;;;;60.25;28.63;;;35.10;84.10;;;;;;4157709;28;20068;-70
2022/03/15 09:06:55;;;;;;;57.97;27.73;;;35.10;84.40;;;;;;4141640;28;20042;-71
2022/03/15 09:09:03;;;;;;;67.90;28.73;;;35.10;84.70;;;;;;4157565;28;20415;-70
2022/03/15 09:11:14;;;;;;;45.90;28.98;;;35.10;85.30;;;;;;4158275;28;20049;-70
2022/03/15 09:13:19;;;;;;;40.92;28.33;;;35.10;85.50;;;;;;4156439;28;20908;-72
2022/03/15 09:15:24;;;;;;;36.33;28.65;;;35.00;85.20;;;;;;4156529;28;20049;-72
2022/03/15 09:17:29;;;;;;;36.22;27.67;;;35.00;85.00;;;;;;4158892;28;20048;-70
2022/03/15 09:19:55;;;;;;;41.20;34.47;;;35.00;84.70;;;;;;4181455;28;20052;-71
2022/03/15 09:22:04;;;;;;;44.45;34.53;;;34.90;84.30;;;;;;4163178;28;20045;-71
2022/03/15 09:24:12;;;;;;;38.60;31.80;;;35.00;84.20;;;;;;4145190;28;20621;-71
2022/03/15 09:26:16;;;;;;;35.63;29.23;;;35.00;83.80;;;;;;4160712;28;20045;-73
2022/03/15 09:28:21;;;;;;;37.13;29.55;;;34.90;83.90;;;;;;4186227;28;20072;-72
2022/03/15 09:30:30;;;;;;;41.03;33.70;;;34.90;84.50;;;;;;4157621;28;20084;-67
2022/03/15 09:32:35;;;;;;;41.28;33.30;;;35.00;84.90;;;;;;4162105;28;20077;-72
2022/03/15 09:34:39;;;;;;;37.75;31.45;;;35.00;84.80;;;;;;4159949;28;20049;-72
2022/03/15 09:36:49;;;;;;;33.88;30.17;;;34.90;84.80;;;;;;4144715;28;20054;-70
2022/03/15 09:38:55;;;;;;;34.38;28.98;;;34.90;84.90;;;;;;4161048;28;20752;-71
2022/03/15 09:41:04;;;;;;;33.70;28.38;;;34.90;84.80;;;;;;4161047;28;20743;-71
2022/03/15 09:43:08;;;;;;;34.13;30.52;;;34.90;84.60;;;;;;4161584;28;20386;-71
2022/03/15 09:45:14;;;;;;;32.90;28.85;;;34.90;83.90;;;;;;4170804;28;20084;-71
2022/03/15 09:47:19;;;;;;;32.53;28.63;;;34.90;83.40;;;;;;4162846;28;20496;-70
2022/03/15 09:49:25;;;;;;;37.80;31.80;;;34.90;83.60;;;;;;4142084;28;20613;-71
2022/03/15 09:51:32;;;;;;;36.38;30.52;;;34.90;83.90;;;;;;4163502;28;20053;-71
2022/03/15 09:53:39;;;;;;;33.78;30.23;;;34.90;84.30;;;;;;4161177;28;20609;-70
2022/03/15 09:55:45;;;;;;;33.88;29.15;;;34.90;84.60;;;;;;4168198;28;20049;-73
2022/03/15 09:57:53;;;;;;;33.75;28.02;;;34.90;84.90;;;;;;4159646;28;20045;-73
2022/03/15 10:00:01;;;;;;;36.38;29.15;;;34.90;85.20;;;;;;4161044;28;20076;-74
2022/03/15 10:02:17;;;;;;;35.25;28.30;;;34.80;85.10;;;;;;4161901;28;20098;-71
2022/03/15 10:04:23;;;;;;;36.72;30.73;;;34.80;85.10;;;;;;4159736;28;20048;-72
2022/03/15 10:06:30;;;;;;;36.58;28.63;;;34.80;85.00;;;;;;4158969;28;20128;-72
2022/03/15 10:08:35;;;;;;;32.83;26.60;;;34.80;85.20;;;;;;4160461;28;20045;-69
2022/03/15 10:10:40;;;;;;;30.10;26.70;;;34.80;84.90;;;;;;4158864;28;20058;-71
2022/03/15 10:12:44;;;;;;;28.83;25.25;;;34.70;84.60;;;;;;4159674;28;20369;-72
2022/03/15 10:14:51;;;;;;;29.73;26.17;;;34.70;85.30;;;;;;4160055;28;20056;-72
2022/03/15 10:17:01;;;;;;;29.95;25.80;;;34.70;85.90;;;;;;4159924;28;20160;-72
2022/03/15 10:19:09;;;;;;;29.23;25.67;;;34.60;85.80;;;;;;4159218;28;20057;-70
2022/03/15 10:21:16;;;;;;;34.60;25.75;;;34.60;85.70;;;;;;4156441;28;20049;-71
2022/03/15 10:23:29;;;;;;;34.03;26.95;;;34.60;86.10;;;;;;4158120;28;20049;-68
2022/03/15 10:25:41;;;;;;;29.05;25.67;;;34.50;86.40;;;;;;4157879;28;20068;-71
2022/03/15 10:27:54;;;;;;;29.10;26.00;;;34.50;86.70;;;;;;4154860;28;20479;-71
2022/03/15 10:29:58;;;;;;;30.77;26.02;;;34.50;86.70;;;;;;4160058;28;20077;-73
2022/03/15 10:32:06;;;;;;;30.00;26.75;;;34.40;87.10;;;;;;4178315;28;20124;-68
2022/03/15 10:34:13;;;;;;;33.45;27.15;;;34.40;87.00;;;;;;4154950;28;20069;-70
2022/03/15 10:36:18;;;;;;;30.25;26.98;;;34.40;87.20;;;;;;4158906;28;20727;-69
2022/03/15 10:38:24;;;;;;;32.63;27.00;;;34.30;87.30;;;;;;4155489;28;20045;-69
2022/03/15 10:40:41;;;;;;;34.05;29.00;;;34.30;86.80;;;;;;4158642;28;20053;-71
2022/03/15 10:42:47;;;;;;;35.78;29.40;;;34.20;86.90;;;;;;4158835;28;20493;-71
2022/03/15 10:44:53;;;;;;;38.00;28.70;;;34.20;86.90;;;;;;4179365;28;20626;-72
2022/03/15 10:47:14;;;;;;;37.72;29.83;;;34.20;86.90;;;;;;4159106;28;20979;-71